Time;durP1;ratioP1;P1;durP2;ratioP2;P2;SDS_P1;SDS_P2;PMS_P1;PMS_P2;Temp;Humidity;BMP_temperature;BMP_pressure;BME280_temperature;BME280_humidity;BME280_pressure;Samples;Min_cycle;Max_cycle;Signal;HPM_P1;HPM_P2
2021/10/29 00:01:54;;;;;;;42.70;31.27;;;;;;;1.48;86.39;98121.59;6171302;28;20214;-68
2021/10/29 00:04:58;;;;;;;47.03;32.67;;;;;;;1.49;86.06;98115.50;6170783;28;20248;-68
2021/10/29 00:08:00;;;;;;;43.37;30.73;;;;;;;1.44;86.02;98115.66;6154431;28;20205;-68
2021/10/29 00:11:02;;;;;;;40.90;29.70;;;;;;;1.44;86.13;98114.81;6153943;28;20194;-68
2021/10/29 00:14:04;;;;;;;45.90;35.10;;;;;;;1.45;86.23;98112.16;6171285;28;20821;-68
2021/10/29 00:17:07;;;;;;;45.33;34.10;;;;;;;1.45;86.35;98117.34;6169444;28;20503;-68
2021/10/29 00:20:10;;;;;;;42.93;31.50;;;;;;;1.43;86.29;98113.97;6171176;28;20205;-68
2021/10/29 00:23:12;;;;;;;42.63;33.17;;;;;;;1.42;86.55;98119.22;6171234;28;20198;-68
2021/10/29 00:26:14;;;;;;;41.67;30.90;;;;;;;1.41;86.25;98123.56;6169204;28;20273;-69
2021/10/29 00:29:16;;;;;;;45.33;32.67;;;;;;;1.40;86.33;98118.41;6169845;28;20670;-68
2021/10/29 00:32:19;;;;;;;42.07;31.13;;;;;;;1.37;86.63;98111.59;6151544;28;20678;-67
2021/10/29 00:35:21;;;;;;;45.40;32.07;;;;;;;1.36;86.45;98109.03;6165794;28;20198;-68
2021/10/29 00:38:23;;;;;;;39.03;29.33;;;;;;;1.34;86.61;98106.50;6170585;28;20217;-68
2021/10/29 00:41:25;;;;;;;42.47;32.03;;;;;;;1.37;86.72;98098.59;6153612;28;20666;-68
2021/10/29 00:44:27;;;;;;;39.70;29.23;;;;;;;1.36;86.75;98103.84;6170564;28;20205;-68
2021/10/29 00:47:30;;;;;;;43.73;31.50;;;;;;;1.37;86.75;98098.59;6170242;28;20197;-68
2021/10/29 00:50:32;;;;;;;46.13;32.80;;;;;;;1.39;86.98;98091.59;6153780;28;20198;-68
2021/10/29 00:53:34;;;;;;;41.90;31.10;;;;;;;1.42;86.80;98096.66;6170341;28;20572;-68
2021/10/29 00:56:37;;;;;;;45.07;33.93;;;;;;;1.41;86.96;98094.97;6157384;28;20199;-68
2021/10/29 00:59:39;;;;;;;43.73;31.83;;;;;;;1.43;87.13;98092.31;6167267;28;20694;-68
2021/10/29 01:02:41;;;;;;;46.33;32.07;;;;;;;1.41;86.88;98089.75;6169170;28;20672;-68
2021/10/29 01:05:43;;;;;;;42.93;30.93;;;;;;;1.38;87.14;98087.28;6170591;28;20248;-68
2021/10/29 01:08:46;;;;;;;49.73;32.67;;;;;;;1.36;87.01;98085.66;6170052;28;20662;-68
2021/10/29 01:11:48;;;;;;;37.63;28.27;;;;;;;1.34;87.22;98084.84;6170880;28;20194;-68
2021/10/29 01:14:58;;;;;;;44.77;30.93;;;;;;;1.34;87.36;98077.06;6170263;28;20725;-68
2021/10/29 01:18:00;;;;;;;43.77;31.37;;;;;;;1.33;87.59;98076.19;6170126;28;20185;-68
2021/10/29 01:21:03;;;;;;;42.57;30.43;;;;;;;1.34;87.29;98077.91;6170533;28;20272;-68
2021/10/29 01:24:07;;;;;;;44.27;33.27;;;;;;;1.36;87.38;98075.25;6170147;28;20225;-68
2021/10/29 01:27:11;;;;;;;43.87;31.03;;;;;;;1.35;87.89;98069.19;6168856;28;20798;-68
2021/10/29 01:30:14;;;;;;;44.27;31.50;;;;;;;1.38;87.46;98063.88;6168894;28;20334;-68
2021/10/29 01:33:16;;;;;;;44.67;31.83;;;;;;;1.40;87.79;98064.66;6159900;28;20281;-68
2021/10/29 01:36:19;;;;;;;44.50;30.93;;;;;;;1.38;87.72;98065.66;6169602;28;20682;-68
2021/10/29 01:39:23;;;;;;;49.03;34.70;;;;;;;1.39;87.78;98055.19;6172384;28;20241;-70
2021/10/29 01:42:25;;;;;;;45.43;32.93;;;;;;;1.38;88.28;98053.50;6174610;28;20186;-68
2021/10/29 01:45:31;;;;;;;48.03;33.43;;;;;;;1.43;87.71;98056.75;6174149;28;20197;-68
2021/10/29 01:48:33;;;;;;;51.57;33.30;;;;;;;1.42;87.68;98056.81;6174583;28;20228;-68
2021/10/29 01:51:35;;;;;;;42.17;31.73;;;;;;;1.47;88.03;98062.69;6157626;28;20206;-68
2021/10/29 01:54:37;;;;;;;44.30;31.23;;;;;;;1.51;88.07;98053.84;6174145;28;20278;-68
2021/10/29 01:57:40;;;;;;;43.23;31.00;;;;;;;1.50;88.12;98053.94;6169080;28;20205;-69
2021/10/29 02:00:43;;;;;;;46.60;32.97;;;;;;;1.48;87.88;98048.78;6174024;28;20745;-68
2021/10/29 02:03:45;;;;;;;44.63;31.17;;;;;;;1.45;88.14;98041.94;6173070;28;20197;-68
2021/10/29 02:06:48;;;;;;;40.00;29.10;;;;;;;1.48;88.23;98043.59;6173723;28;20192;-68
2021/10/29 02:09:50;;;;;;;43.50;30.33;;;;;;;1.47;88.29;98042.75;6173802;28;20187;-68
2021/10/29 02:12:52;;;;;;;38.40;26.53;;;;;;;1.46;88.73;98040.19;6174041;28;20321;-68
2021/10/29 02:15:54;;;;;;;35.53;27.03;;;;;;;1.42;88.82;98042.06;6173648;28;20202;-69
2021/10/29 02:18:57;;;;;;;46.60;31.93;;;;;;;1.41;88.55;98042.94;6173712;28;20216;-68
2021/10/29 02:21:59;;;;;;;43.13;31.40;;;;;;;1.43;88.35;98041.16;6172351;28;20204;-68
2021/10/29 02:25:02;;;;;;;44.07;30.40;;;;;;;1.37;88.39;98041.41;6173371;28;20202;-68
2021/10/29 02:28:04;;;;;;;35.67;26.93;;;;;;;1.35;88.49;98043.19;6173892;28;20280;-68
2021/10/29 02:31:06;;;;;;;40.63;30.03;;;;;;;1.32;88.73;98040.69;6172374;28;20186;-68
2021/10/29 02:34:09;;;;;;;45.20;30.83;;;;;;;1.36;88.87;98038.84;6173189;28;20205;-71
2021/10/29 02:37:11;;;;;;;45.70;31.43;;;;;;;1.43;88.66;98041.16;6173728;28;20218;-68
2021/10/29 02:40:13;;;;;;;41.33;31.00;;;;;;;1.45;88.90;98041.94;6173346;28;20717;-68
2021/10/29 02:43:15;;;;;;;40.73;29.97;;;;;;;1.46;88.69;98030.63;6172186;28;20205;-68
2021/10/29 02:46:17;;;;;;;46.73;33.00;;;;;;;1.49;88.64;98032.28;6173059;28;20208;-68
2021/10/29 02:49:20;;;;;;;46.67;32.57;;;;;;;1.50;89.04;98033.13;6165649;28;20333;-68
2021/10/29 02:52:22;;;;;;;41.20;30.37;;;;;;;1.46;88.64;98025.44;6172220;28;20301;-71
2021/10/29 02:55:24;;;;;;;40.00;29.57;;;;;;;1.42;88.62;98031.66;6170737;28;20190;-68
2021/10/29 02:58:28;;;;;;;42.27;30.03;;;;;;;1.40;88.78;98033.44;6155026;28;20658;-68
2021/10/29 03:01:30;;;;;;;44.20;30.67;;;;;;;1.36;89.09;98029.28;6172677;28;20687;-68
2021/10/29 03:04:32;;;;;;;40.87;30.53;;;;;;;1.34;88.81;98027.66;6172468;28;20209;-68
2021/10/29 03:07:35;;;;;;;42.63;30.90;;;;;;;1.32;89.12;98027.69;6172578;28;20209;-68
2021/10/29 03:10:37;;;;;;;40.63;29.50;;;;;;;1.30;88.73;98023.50;6172840;28;20281;-71
2021/10/29 03:13:39;;;;;;;40.60;29.97;;;;;;;1.26;88.89;98024.50;6172695;28;20226;-68
2021/10/29 03:16:41;;;;;;;40.13;28.00;;;;;;;1.28;89.12;98020.94;6155038;28;20206;-68
2021/10/29 03:19:44;;;;;;;38.63;28.73;;;;;;;1.24;89.19;98019.34;6172636;28;20212;-68
2021/10/29 03:22:46;;;;;;;37.23;27.80;;;;;;;1.23;88.85;98016.81;6171893;28;20670;-68
2021/10/29 03:25:48;;;;;;;39.87;28.67;;;;;;;1.18;88.70;98014.41;6172408;28;20229;-68
2021/10/29 03:28:51;;;;;;;36.53;26.93;;;;;;;1.17;88.85;98015.28;6170697;28;20240;-68
2021/10/29 03:31:53;;;;;;;37.43;27.17;;;;;;;1.16;88.72;98015.34;6158221;28;20201;-68
2021/10/29 03:34:57;;;;;;;36.80;27.53;;;;;;;1.10;89.18;98014.66;6168118;28;20230;-68
2021/10/29 03:38:44;;;;;;;36.57;26.27;;;;;;;1.13;89.05;98012.84;6171742;28;20218;-68
2021/10/29 03:41:27;;;;;;;34.80;24.67;;;;;;;1.12;89.03;98014.59;6162086;28;20772;-68
2021/10/29 03:44:51;;;;;;;33.33;23.63;;;;;;;1.13;88.77;98015.47;6171476;28;20233;-68
2021/10/29 03:47:57;;;;;;;33.83;24.90;;;;;;;1.11;89.15;98008.56;6170795;28;20310;-68
2021/10/29 03:54:13;;;;;;;35.40;26.03;;;;;;;1.18;89.20;98017.00;6171599;28;20194;-68
2021/10/29 03:57:25;;;;;;;42.97;29.20;;;;;;;1.21;89.04;98003.84;6143946;28;20230;-68
2021/10/29 04:00:30;;;;;;;40.37;27.47;;;;;;;1.26;89.33;98016.69;6171309;28;20742;-68
2021/10/29 04:03:33;;;;;;;42.27;28.37;;;;;;;1.32;89.32;98012.09;6171361;28;20685;-68
2021/10/29 04:06:35;;;;;;;39.30;26.83;;;;;;;1.36;88.74;97999.84;6170577;28;20198;-68
2021/10/29 04:09:37;;;;;;;34.97;25.50;;;;;;;1.33;89.12;98012.94;6154450;28;20201;-68
2021/10/29 04:12:42;;;;;;;38.00;26.00;;;;;;;1.31;89.37;98009.56;6171306;28;20662;-68
2021/10/29 04:15:44;;;;;;;41.20;29.37;;;;;;;1.29;89.31;98008.78;6153783;28;20208;-68
2021/10/29 04:18:46;;;;;;;40.87;29.57;;;;;;;1.63;90.29;98013.53;6171135;28;20709;-68
2021/10/29 04:21:48;;;;;;;41.17;27.93;;;;;;;1.54;89.61;98021.69;6170780;28;20233;-68
2021/10/29 04:24:50;;;;;;;40.57;28.20;;;;;;;1.45;89.73;98020.28;6171024;28;20190;-69
2021/10/29 04:27:59;;;;;;;47.70;31.10;;;;;;;1.54;89.81;98012.13;6153409;28;20197;-68
2021/10/29 04:31:04;;;;;;;42.50;29.63;;;;;;;1.61;89.51;98010.97;6163608;28;20179;-69
2021/10/29 04:34:06;;;;;;;40.33;29.37;;;;;;;1.62;89.39;98006.63;6170719;28;20194;-69
2021/10/29 04:37:09;;;;;;;39.83;27.67;;;;;;;1.64;89.76;98008.25;6153359;28;20434;-68
2021/10/29 04:40:11;;;;;;;44.20;31.30;;;;;;;1.92;89.52;98013.22;6169585;28;20217;-68
2021/10/29 04:43:14;;;;;;;45.43;31.57;;;;;;;1.98;89.59;98009.53;6169266;28;20592;-68
2021/10/29 04:46:16;;;;;;;57.70;34.00;;;;;;;2.18;90.08;98001.75;6170804;28;20606;-68
2021/10/29 04:49:18;;;;;;;41.60;29.87;;;;;;;2.36;89.51;98002.72;6170633;28;20613;-68
2021/10/29 04:52:21;;;;;;;43.63;30.93;;;;;;;2.72;89.70;97993.31;6170304;28;20854;-68
2021/10/29 04:55:23;;;;;;;46.23;32.90;;;;;;;2.89;89.27;97998.66;6168935;28;20220;-68
2021/10/29 04:58:25;;;;;;;40.37;27.50;;;;;;;3.20;87.40;98000.69;6170404;28;20186;-69
2021/10/29 05:01:27;;;;;;;32.90;24.93;;;;;;;3.05;87.25;97997.94;6170845;28;20625;-68
2021/10/29 05:04:30;;;;;;;35.13;26.67;;;;;;;3.42;86.67;97990.13;6170298;28;20196;-68
2021/10/29 05:07:33;;;;;;;38.93;27.17;;;;;;;3.94;84.08;97987.63;6170438;28;20196;-68
2021/10/29 05:10:35;;;;;;;30.77;22.67;;;;;;;4.03;83.92;97985.44;6170544;28;20275;-68
2021/10/29 05:13:37;;;;;;;32.00;23.40;;;;;;;3.83;83.64;97982.09;6171485;28;20197;-69
2021/10/29 05:16:39;;;;;;;30.70;22.90;;;;;;;3.74;84.00;97990.38;6175366;28;20195;-68
2021/10/29 05:19:41;;;;;;;29.23;23.60;;;;;;;3.82;83.67;97983.84;6174832;28;20574;-68
2021/10/29 05:22:44;;;;;;;32.17;22.70;;;;;;;4.35;81.43;97981.22;6174229;28;20199;-69
2021/10/29 05:25:47;;;;;;;30.93;22.40;;;;;;;4.63;80.08;97971.94;6175051;28;20344;-68
2021/10/29 05:28:49;;;;;;;28.20;21.70;;;;;;;4.75;79.81;97972.16;6174657;28;20817;-68
2021/10/29 05:31:52;;;;;;;29.77;22.23;;;;;;;4.56;79.45;97979.28;6159805;28;20223;-68
2021/10/29 05:34:59;;;;;;;32.57;22.37;;;;;;;4.58;79.21;97981.81;6162075;28;20580;-67
2021/10/29 05:38:03;;;;;;;32.03;21.40;;;;;;;4.93;78.28;97977.34;6157979;28;20263;-67
2021/10/29 05:41:05;;;;;;;28.13;21.33;;;;;;;4.81;78.40;97981.44;6157465;28;20219;-68
2021/10/29 05:44:08;;;;;;;26.83;20.27;;;;;;;4.92;77.65;97986.97;6174563;28;20639;-68
2021/10/29 05:47:11;;;;;;;27.67;20.10;;;;;;;4.77;79.11;97988.63;6175025;28;20197;-71
2021/10/29 05:50:13;;;;;;;25.73;20.47;;;;;;;4.90;77.20;97993.19;6174115;28;20616;-68
2021/10/29 05:56:33;;;;;;;30.93;20.97;;;;;;;4.95;77.61;97988.56;6145230;29;20202;-68
2021/10/29 05:59:36;;;;;;;26.63;20.07;;;;;;;5.07;76.95;97990.56;6166737;28;20221;-67
2021/10/29 06:02:39;;;;;;;27.50;19.63;;;;;;;5.10;77.06;97990.38;6172996;28;20209;-68
2021/10/29 06:05:41;;;;;;;26.47;19.17;;;;;;;5.13;76.40;97998.91;6172874;28;20205;-68
2021/10/29 06:08:44;;;;;;;25.20;18.93;;;;;;;5.22;75.39;97994.09;6173788;28;20256;-67
2021/10/29 06:11:46;;;;;;;26.50;18.37;;;;;;;5.14;76.62;98000.59;6173268;28;20191;-68
2021/10/29 06:14:48;;;;;;;26.47;18.80;;;;;;;4.96;77.31;98000.72;6173638;28;20317;-68
2021/10/29 06:17:51;;;;;;;24.07;19.00;;;;;;;4.95;77.24;97997.28;6173722;28;20186;-68
2021/10/29 06:20:56;;;;;;;23.27;17.47;;;;;;;5.02;76.93;98009.09;6173107;28;20592;-68
2021/10/29 06:24:02;;;;;;;24.37;17.20;;;;;;;5.04;76.71;98014.25;6172321;28;20282;-68
2021/10/29 06:28:08;;;;;;;27.37;19.23;;;;;;;5.11;76.72;98018.22;6172856;28;20225;-68
2021/10/29 06:30:31;;;;;;;27.93;18.50;;;;;;;5.45;73.66;98027.72;6170020;28;20196;-68
2021/10/29 06:33:36;;;;;;;20.30;15.33;;;;;;;5.60;73.82;98034.75;6145932;28;20206;-68
2021/10/29 06:36:39;;;;;;;23.87;16.73;;;;;;;5.67;72.92;98032.66;6172627;28;20623;-68
2021/10/29 06:39:42;;;;;;;23.43;18.73;;;;;;;5.82;71.20;98032.63;6173168;28;20225;-68
2021/10/29 06:42:51;;;;;;;22.07;16.03;;;;;;;5.77;73.20;98039.06;6172701;28;20195;-68
2021/10/29 06:49:09;;;;;;;22.57;17.07;;;;;;;5.42;74.32;98030.50;6171065;28;20245;-68
2021/10/29 06:59:12;;;;;;;18.10;14.70;;;;;;;5.37;74.68;98036.00;6173069;28;20181;-68
2021/10/29 07:42:38;;;;;;;20.07;15.67;;;;;;;6.60;70.26;98044.78;6153988;28;20214;-68
2021/10/29 07:45:41;;;;;;;18.53;14.07;;;;;;;6.65;70.85;98044.53;6154149;28;20204;-67
2021/10/29 07:48:45;;;;;;;21.13;16.03;;;;;;;6.74;70.18;98051.00;6171207;28;20231;-68
2021/10/29 07:51:47;;;;;;;22.77;15.73;;;;;;;6.80;70.41;98048.84;6170492;28;20670;-68
2021/10/29 07:54:50;;;;;;;21.67;14.00;;;;;;;6.83;70.62;98043.44;6171468;28;20201;-68
2021/10/29 07:57:58;;;;;;;27.27;19.07;;;;;;;6.89;69.09;98050.06;6153587;28;20200;-67
2021/10/29 08:01:01;;;;;;;21.63;17.43;;;;;;;7.16;68.45;98053.69;6153857;28;20343;-68
2021/10/29 08:04:04;;;;;;;18.13;15.00;;;;;;;7.29;69.27;98046.75;6170977;28;20201;-68
2021/10/29 08:07:06;;;;;;;23.67;16.93;;;;;;;7.53;67.47;98046.19;6171030;28;20734;-68
2021/10/29 08:10:11;;;;;;;21.40;15.30;;;;;;;7.76;67.01;98043.81;6170834;28;20194;-67
2021/10/29 08:13:13;;;;;;;20.40;16.80;;;;;;;7.98;66.29;98039.81;6171212;28;20309;-68
2021/10/29 08:16:15;;;;;;;21.87;14.60;;;;;;;8.15;66.61;98053.56;6170770;28;20284;-68
2021/10/29 08:19:30;;;;;;;22.40;16.80;;;;;;;8.50;63.02;98035.50;6171451;28;20220;-67
2021/10/29 08:22:35;;;;;;;19.77;13.97;;;;;;;8.78;64.18;98038.94;6171012;28;20193;-67
2021/10/29 08:25:38;;;;;;;17.37;13.03;;;;;;;8.91;63.76;98033.66;6153346;28;20204;-67
2021/10/29 08:28:44;;;;;;;18.60;13.57;;;;;;;9.15;62.94;98037.25;6169407;28;20212;-68
2021/10/29 08:31:47;;;;;;;22.57;17.20;;;;;;;9.26;62.39;98040.00;6157646;28;20199;-67
2021/10/29 08:34:50;;;;;;;24.17;17.97;;;;;;;9.47;61.51;98029.78;6164598;28;20194;-67
2021/10/29 08:37:52;;;;;;;16.97;13.20;;;;;;;9.67;61.39;98031.00;6170776;28;20231;-67
2021/10/29 08:40:55;;;;;;;25.40;18.37;;;;;;;9.73;60.23;98027.91;6169892;28;20243;-67
2021/10/29 08:43:57;;;;;;;22.03;17.37;;;;;;;9.87;60.46;98028.63;6170765;28;20204;-68
2021/10/29 08:47:02;;;;;;;24.83;18.10;;;;;;;10.11;59.47;98019.88;6152528;28;20729;-68
2021/10/29 08:50:07;;;;;;;22.50;15.93;;;;;;;10.23;60.14;98017.22;6170399;28;20244;-68
2021/10/29 08:53:09;;;;;;;21.37;16.40;;;;;;;10.28;59.06;98022.16;6171213;28;20201;-68
2021/10/29 08:56:12;;;;;;;22.50;17.23;;;;;;;10.35;59.16;98026.03;6159593;28;20616;-67
2021/10/29 08:59:19;;;;;;;21.37;15.83;;;;;;;10.62;59.03;98025.75;6167821;28;20229;-67
2021/10/29 09:02:26;;;;;;;22.30;17.67;;;;;;;10.78;58.11;98013.09;6152917;28;20216;-67
2021/10/29 09:05:57;;;;;;;16.20;13.10;;;;;;;10.99;58.91;98015.88;6168728;28;20611;-69
2021/10/29 09:32:08;;;;;;;25.47;18.27;;;;;;;12.45;52.33;97994.47;6161481;28;20207;-66
2021/10/29 09:35:14;;;;;;;22.63;18.80;;;;;;;12.52;53.22;97981.56;6168358;28;20210;-66
2021/10/29 09:38:16;;;;;;;20.50;16.67;;;;;;;12.82;52.74;97994.03;6152769;28;20217;-69
2021/10/29 09:41:43;;;;;;;20.03;15.90;;;;;;;13.06;51.92;97989.31;6169403;28;20235;-66
2021/10/29 09:44:48;;;;;;;22.57;16.07;;;;;;;13.25;52.19;97994.75;6169929;28;20295;-69
2021/10/29 09:48:07;;;;;;;21.30;16.70;;;;;;;13.26;52.41;97985.84;6169273;28;20329;-67
2021/10/29 09:51:12;;;;;;;20.53;17.37;;;;;;;13.33;50.97;97994.09;6169661;28;20205;-66
2021/10/29 09:54:21;;;;;;;20.63;16.73;;;;;;;13.28;51.69;97983.03;6169176;28;20201;-66
2021/10/29 09:57:23;;;;;;;21.20;16.53;;;;;;;13.58;52.39;97979.50;6168350;28;20194;-66
2021/10/29 10:00:26;;;;;;;23.10;18.03;;;;;;;13.67;50.23;97989.34;6170666;28;20217;-67
2021/10/29 10:03:29;;;;;;;25.30;18.73;;;;;;;13.32;50.95;97979.16;6155712;28;20558;-63
2021/10/29 10:06:39;;;;;;;23.20;18.37;;;;;;;13.29;51.58;97982.06;6173017;28;20325;-63
2021/10/29 10:09:42;;;;;;;20.33;16.73;;;;;;;13.53;51.91;97973.78;6172950;28;20189;-64
2021/10/29 10:12:47;;;;;;;20.47;18.00;;;;;;;13.61;51.06;97979.25;6172974;28;20279;-66
2021/10/29 10:15:52;;;;;;;18.90;16.53;;;;;;;13.62;51.15;97965.88;6172714;28;20178;-66
2021/10/29 10:18:55;;;;;;;22.23;19.53;;;;;;;13.86;50.55;97964.69;6173963;28;20191;-67
2021/10/29 10:21:59;;;;;;;22.83;18.47;;;;;;;13.81;50.07;97978.34;6174090;28;21075;-69
2021/10/29 10:25:08;;;;;;;25.37;19.37;;;;;;;13.67;50.65;97968.13;6172802;28;20201;-67
2021/10/29 10:28:37;;;;;;;23.03;19.03;;;;;;;13.93;49.43;97964.00;6173624;28;20198;-66
2021/10/29 10:42:20;;;;;;;20.07;17.00;;;;;;;14.66;47.54;97940.56;6173144;28;20214;-67
2021/10/29 10:45:45;;;;;;;18.63;16.03;;;;;;;14.77;48.71;97951.84;6172855;28;20663;-67
2021/10/29 10:59:46;;;;;;;20.13;17.13;;;;;;;14.83;47.75;97923.88;6060010;29;20719;-67
2021/10/29 11:12:18;;;;;;;22.53;16.63;;;;;;;15.60;45.35;97901.47;6050536;29;20556;-66
2021/10/29 11:15:26;;;;;;;17.70;15.00;;;;;;;15.58;45.55;97906.94;6051086;29;20288;-66
2021/10/29 11:18:31;;;;;;;18.00;15.63;;;;;;;15.43;45.91;97911.91;6051422;29;20689;-66
2021/10/29 11:21:35;;;;;;;19.77;16.30;;;;;;;15.57;46.30;97899.97;6051388;29;20293;-66
2021/10/29 11:24:41;;;;;;;16.93;15.13;;;;;;;15.85;45.40;97892.78;6051030;29;20637;-67
2021/10/29 11:27:43;;;;;;;15.80;14.10;;;;;;;15.96;45.52;97900.53;6051221;29;20628;-67
2021/10/29 11:30:46;;;;;;;21.07;15.47;;;;;;;15.76;44.69;97889.19;6071201;28;20202;-67
2021/10/29 11:33:50;;;;;;;17.30;14.27;;;;;;;16.13;44.88;97888.22;6172087;28;20229;-67
2021/10/29 11:36:54;;;;;;;19.13;16.17;;;;;;;16.41;43.56;97888.94;6171060;28;20222;-68
2021/10/29 11:39:56;;;;;;;21.87;14.90;;;;;;;16.53;44.32;97879.72;6171656;28;20569;-66
2021/10/29 11:43:03;;;;;;;20.40;15.87;;;;;;;16.52;43.50;97862.06;6171546;28;20690;-66
2021/10/29 11:46:08;;;;;;;16.73;14.93;;;;;;;16.69;43.19;97873.69;6171411;28;20194;-67
2021/10/29 11:49:25;;;;;;;19.30;15.17;;;;;;;16.77;43.19;97866.56;6171706;28;20226;-67
2021/10/29 11:52:29;;;;;;;16.83;13.50;;;;;;;17.06;42.67;97862.75;6169756;28;20179;-67
2021/10/29 11:58:44;;;;;;;15.73;14.10;;;;;;;17.14;41.50;97844.13;6169623;28;20609;-66
2021/10/29 12:08:30;;;;;;;18.00;13.73;;;;;;;17.45;41.51;97828.41;6170780;28;20308;-66
2021/10/29 12:11:35;;;;;;;14.97;13.07;;;;;;;17.45;41.43;97829.22;6171161;28;20609;-66
2021/10/29 12:14:39;;;;;;;14.90;12.80;;;;;;;17.59;41.61;97825.91;6170710;28;20678;-66
2021/10/29 12:17:55;;;;;;;16.43;13.30;;;;;;;17.95;40.83;97823.84;6171111;28;20588;-66
2021/10/29 12:20:57;;;;;;;14.73;13.13;;;;;;;17.76;39.89;97812.66;6170756;28;20226;-66
2021/10/29 12:24:05;;;;;;;14.00;12.50;;;;;;;17.72;40.19;97814.81;6170370;28;20677;-66
2021/10/29 12:27:15;;;;;;;15.40;12.77;;;;;;;17.86;39.88;97808.00;6170608;28;20178;-66
2021/10/29 12:30:27;;;;;;;18.37;14.10;;;;;;;17.96;40.22;97808.66;6168981;28;20722;-66
2021/10/29 12:34:06;;;;;;;15.40;13.80;;;;;;;18.04;40.11;97803.31;6147102;29;20175;-66
2021/10/29 12:37:39;;;;;;;16.53;12.90;;;;;;;18.13;40.64;97810.31;6168610;28;20615;-66
2021/10/29 12:54:31;;;;;;;15.53;14.03;;;;;;;18.33;39.28;97782.25;6170277;28;20658;-66
2021/10/29 13:04:51;;;;;;;16.93;13.93;;;;;;;21.60;33.29;97772.38;6169866;28;20252;-66
2021/10/29 13:07:53;;;;;;;15.50;13.43;;;;;;;22.95;30.93;97768.59;6170357;28;20635;-66
2021/10/29 13:10:58;;;;;;;16.97;13.37;;;;;;;23.97;29.10;97771.19;6170196;28;20323;-66
2021/10/29 13:14:04;;;;;;;16.47;14.70;;;;;;;24.09;28.78;97782.22;6170005;28;20507;-66
2021/10/29 13:17:11;;;;;;;15.60;13.30;;;;;;;23.37;29.52;97767.50;6169838;28;20194;-66
2021/10/29 13:36:58;;;;;;;17.20;13.97;;;;;;;16.13;42.87;97763.91;6173478;28;20352;-67
2021/10/29 13:53:45;;;;;;;15.77;14.00;;;;;;;14.00;48.30;97759.94;6174387;28;20662;-66
2021/10/29 14:03:29;;;;;;;15.53;13.23;;;;;;;13.35;49.41;97758.88;6173962;28;20206;-68
2021/10/29 14:33:16;;;;;;;21.67;15.60;;;;;;;12.35;53.56;97783.63;6165090;28;20216;-69
2021/10/29 14:36:21;;;;;;;18.37;14.83;;;;;;;12.33;53.40;97774.97;6172387;28;20713;-68
2021/10/29 14:39:36;;;;;;;20.63;14.80;;;;;;;12.29;53.01;97776.19;6173671;28;20192;-68
2021/10/29 14:42:43;;;;;;;20.27;15.33;;;;;;;12.26;53.10;97784.44;6172691;28;20232;-68
2021/10/29 14:49:02;;;;;;;18.77;15.23;;;;;;;12.11;53.73;97779.47;6172814;28;20238;-68
2021/10/29 15:41:11;;;;;;;19.87;15.37;;;;;;;10.53;57.86;97775.75;6172343;28;20242;-67
2021/10/29 15:47:31;;;;;;;17.83;14.90;;;;;;;10.30;57.98;97773.13;6155068;28;20208;-67
2021/10/29 15:50:35;;;;;;;16.27;13.27;;;;;;;10.14;59.06;97777.03;6147791;29;20637;-67
2021/10/29 15:53:38;;;;;;;18.87;15.93;;;;;;;9.98;59.44;97775.56;6137022;29;20195;-68
2021/10/29 15:56:55;;;;;;;17.67;15.10;;;;;;;9.88;60.40;97771.94;6133818;29;20275;-68
2021/10/29 16:20:00;;;;;;;19.37;14.10;;;;;;;9.25;62.61;97788.97;6147187;29;20562;-67
2021/10/29 16:23:03;;;;;;;22.00;16.63;;;;;;;9.19;61.93;97788.56;6146013;29;20268;-68
2021/10/29 16:26:11;;;;;;;18.57;15.77;;;;;;;9.18;62.52;97795.63;6146624;29;20198;-67
2021/10/29 16:29:19;;;;;;;17.93;14.67;;;;;;;9.08;62.85;97792.00;6147374;29;20203;-67
2021/10/29 16:32:49;;;;;;;22.50;17.67;;;;;;;8.96;62.98;97786.78;6135363;29;20201;-67
2021/10/29 16:35:50;;;;;;;23.60;18.17;;;;;;;9.02;63.63;97786.34;6129580;29;20214;-67
2021/10/29 16:38:52;;;;;;;17.80;15.40;;;;;;;8.99;63.16;97784.75;6147011;28;20218;-67
2021/10/29 16:41:55;;;;;;;25.23;18.20;;;;;;;8.97;64.02;97777.94;6146575;29;20265;-67
2021/10/29 16:44:57;;;;;;;22.43;17.70;;;;;;;8.99;63.27;97779.47;6146996;29;20281;-67
2021/10/29 16:48:00;;;;;;;24.40;18.30;;;;;;;8.92;64.28;97780.88;6150252;28;20645;-67
2021/10/29 16:51:02;;;;;;;25.37;19.10;;;;;;;8.94;64.15;97779.00;6170819;28;20205;-67
2021/10/29 16:54:04;;;;;;;22.63;18.30;;;;;;;8.92;63.70;97762.47;6171019;28;20590;-67
2021/10/29 16:57:06;;;;;;;20.80;17.63;;;;;;;8.91;64.46;97768.69;6164834;28;20584;-67
2021/10/29 17:00:11;;;;;;;22.70;19.53;;;;;;;8.92;64.57;97769.53;6170896;28;20623;-67
2021/10/29 17:03:14;;;;;;;26.40;19.63;;;;;;;8.96;63.83;97778.88;6170409;28;20209;-67
2021/10/29 17:06:16;;;;;;;24.53;18.80;;;;;;;9.05;63.52;97775.59;6169056;28;20215;-68
2021/10/29 17:09:18;;;;;;;22.97;17.43;;;;;;;8.98;64.34;97762.03;6170603;28;20232;-68
2021/10/29 17:12:21;;;;;;;25.67;20.40;;;;;;;8.97;64.11;97764.78;6175157;28;20579;-68
2021/10/29 17:15:23;;;;;;;25.00;19.50;;;;;;;8.94;65.14;97773.72;6175555;28;20342;-67
2021/10/29 17:18:28;;;;;;;21.33;18.47;;;;;;;8.83;65.35;97773.66;6174854;28;20201;-68
2021/10/29 17:21:30;;;;;;;28.23;19.57;;;;;;;8.72;66.16;97769.16;6175505;28;20340;-68
2021/10/29 17:24:33;;;;;;;26.30;20.10;;;;;;;8.75;65.25;97781.25;6175865;28;20217;-68
2021/10/29 17:27:35;;;;;;;25.40;20.83;;;;;;;8.82;65.59;97774.59;6174895;28;20268;-68
2021/10/29 17:30:37;;;;;;;26.73;20.63;;;;;;;8.80;65.26;97774.72;6156318;28;20189;-68
2021/10/29 17:33:39;;;;;;;22.60;19.40;;;;;;;8.94;65.01;97783.41;6173692;28;20264;-67
2021/10/29 17:36:41;;;;;;;27.47;20.83;;;;;;;8.86;65.15;97784.81;6174487;28;20576;-67
2021/10/29 17:39:44;;;;;;;23.90;20.57;;;;;;;8.78;65.88;97778.44;6174534;28;20204;-68
2021/10/29 17:42:46;;;;;;;24.57;20.23;;;;;;;8.70;66.17;97784.22;6157667;28;20659;-67
2021/10/29 17:45:51;;;;;;;23.13;19.70;;;;;;;8.70;66.64;97792.09;6174771;28;20202;-68
2021/10/29 17:48:53;;;;;;;27.93;19.90;;;;;;;8.64;65.92;97784.66;6174337;28;20576;-67
2021/10/29 17:52:01;;;;;;;30.03;21.40;;;;;;;8.56;67.43;97794.88;6158137;28;20210;-68
2021/10/29 17:55:05;;;;;;;23.33;18.10;;;;;;;8.49;67.03;97798.88;6174190;28;20193;-68
2021/10/29 17:58:08;;;;;;;20.40;18.10;;;;;;;8.37;67.54;97805.84;6175193;28;20182;-70
2021/10/29 18:01:10;;;;;;;23.43;19.30;;;;;;;8.22;68.23;97804.22;6174693;28;20199;-67
2021/10/29 18:04:12;;;;;;;21.33;18.33;;;;;;;8.14;68.82;97812.66;6173551;28;20590;-67
2021/10/29 18:07:15;;;;;;;24.07;18.67;;;;;;;8.06;68.39;97809.72;6174178;28;20564;-68
2021/10/29 18:10:17;;;;;;;22.03;17.93;;;;;;;7.97;68.80;97807.72;6173924;28;20545;-67
2021/10/29 18:13:19;;;;;;;23.40;19.77;;;;;;;7.96;68.53;97811.28;6174260;28;20629;-68
2021/10/29 18:16:21;;;;;;;24.67;18.70;;;;;;;8.01;68.22;97822.31;6174099;28;20684;-68
2021/10/29 18:19:23;;;;;;;28.13;20.93;;;;;;;8.18;67.82;97808.03;6173785;28;20562;-67
2021/10/29 18:22:26;;;;;;;20.17;17.43;;;;;;;8.31;67.49;97811.50;6173643;28;20701;-68
2021/10/29 18:25:28;;;;;;;19.23;17.13;;;;;;;8.18;68.26;97805.41;6173825;28;20588;-67
2021/10/29 18:28:30;;;;;;;20.77;17.10;;;;;;;8.01;68.08;97810.94;6173733;28;20715;-67
2021/10/29 18:31:34;;;;;;;20.77;16.87;;;;;;;7.84;68.71;97813.88;6161966;28;20202;-68
2021/10/29 18:34:38;;;;;;;19.00;15.90;;;;;;;7.67;69.38;97804.50;6150301;28;20183;-69
2021/10/29 18:37:40;;;;;;;19.40;17.30;;;;;;;7.57;70.34;97806.06;6173648;28;20216;-67
2021/10/29 18:40:42;;;;;;;21.23;17.73;;;;;;;7.50;70.75;97804.75;6173203;28;20670;-68
2021/10/29 18:43:45;;;;;;;18.63;16.30;;;;;;;7.51;70.27;97799.41;6173670;28;20720;-68
2021/10/29 18:46:47;;;;;;;22.60;18.50;;;;;;;7.55;70.29;97800.91;6172990;28;20200;-68
2021/10/29 18:49:49;;;;;;;27.80;20.43;;;;;;;7.66;69.90;97794.94;6173396;28;20603;-67
2021/10/29 18:52:51;;;;;;;21.37;16.90;;;;;;;7.80;69.21;97823.75;6173267;28;20182;-67
2021/10/29 18:55:53;;;;;;;21.47;18.03;;;;;;;7.71;70.06;97809.44;6166563;28;20269;-68
2021/10/29 18:58:56;;;;;;;21.63;16.63;;;;;;;7.48;70.08;97819.81;6150845;28;20567;-68